sensor_id;sensor_type;location;lat;lon;timestamp;pressure;altitude;pressure_sealevel;temperature;humidity
40596;BME280;26304;48.794;9.820;2023-02-15T00:03:18;97546.72;;;16.29;46.22
40596;BME280;26304;48.794;9.820;2023-02-15T00:09:01;97556.75;;;16.27;46.01
40596;BME280;26304;48.794;9.820;2023-02-15T00:14:44;97552.94;;;16.25;46.40
40596;BME280;26304;48.794;9.820;2023-02-15T00:20:28;97551.72;;;16.22;45.93
40596;BME280;26304;48.794;9.820;2023-02-15T00:26:11;97535.56;;;16.20;45.88
40596;BME280;26304;48.794;9.820;2023-02-15T00:31:54;97539.25;;;16.19;46.00
40596;BME280;26304;48.794;9.820;2023-02-15T00:37:38;97539.25;;;16.19;46.05
40596;BME280;26304;48.794;9.820;2023-02-15T00:43:20;97527.91;;;16.15;46.28
40596;BME280;26304;48.794;9.820;2023-02-15T00:49:03;97524.81;;;16.13;46.40
40596;BME280;26304;48.794;9.820;2023-02-15T00:54:47;97527.00;;;16.11;46.08
40596;BME280;26304;48.794;9.820;2023-02-15T01:00:29;97527.00;;;16.11;45.95
40596;BME280;26304;48.794;9.820;2023-02-15T01:06:13;97526.25;;;16.10;46.19
40596;BME280;26304;48.794;9.820;2023-02-15T01:11:57;97531.38;;;16.07;45.76
40596;BME280;26304;48.794;9.820;2023-02-15T01:17:39;97523.50;;;16.07;45.98
40596;BME280;26304;48.794;9.820;2023-02-15T01:23:22;97511.81;;;16.04;46.60
40596;BME280;26304;48.794;9.820;2023-02-15T01:29:05;97514.75;;;16.03;46.28
40596;BME280;26304;48.794;9.820;2023-02-15T01:34:48;97517.69;;;16.01;46.44
40596;BME280;26304;48.794;9.820;2023-02-15T01:40:31;97516.47;;;15.98;46.33
40596;BME280;26304;48.794;9.820;2023-02-15T01:46:17;97503.34;;;15.98;46.55
40596;BME280;26304;48.794;9.820;2023-02-15T01:52:01;97495.06;;;15.96;46.51
40596;BME280;26304;48.794;9.820;2023-02-15T01:57:45;97497.25;;;15.94;46.66
40596;BME280;26304;48.794;9.820;2023-02-15T02:03:38;97500.94;;;15.93;46.46
40596;BME280;26304;48.794;9.820;2023-02-15T02:09:23;97504.53;;;15.89;46.47
40596;BME280;26304;48.794;9.820;2023-02-15T02:15:07;97505.06;;;15.82;46.78
40596;BME280;26304;48.794;9.820;2023-02-15T02:21:01;97493.03;;;15.81;46.39
40596;BME280;26304;48.794;9.820;2023-02-15T02:33:45;97497.34;;;18.06;42.96
40596;BME280;26304;48.794;9.820;2023-02-15T02:39:37;97494.81;;;18.93;41.42
40596;BME280;26304;48.794;9.820;2023-02-15T02:45:26;97488.19;;;19.19;41.47
40596;BME280;26304;48.794;9.820;2023-02-15T02:51:11;97494.25;;;19.39;40.86
40596;BME280;26304;48.794;9.820;2023-02-15T02:56:56;97494.47;;;19.92;40.39
40596;BME280;26304;48.794;9.820;2023-02-15T03:02:44;97495.16;;;20.36;39.81
40596;BME280;26304;48.794;9.820;2023-02-15T03:08:32;97472.56;;;20.38;40.14
40596;BME280;26304;48.794;9.820;2023-02-15T03:14:18;97478.88;;;20.57;39.64
40596;BME280;26304;48.794;9.820;2023-02-15T03:20:04;97482.84;;;20.97;39.48
40596;BME280;26304;48.794;9.820;2023-02-15T03:25:52;97489.09;;;21.15;39.42
40596;BME280;26304;48.794;9.820;2023-02-15T03:31:40;97474.94;;;21.00;39.69
40596;BME280;26304;48.794;9.820;2023-02-15T03:37:28;97473.31;;;21.53;38.93
40596;BME280;26304;48.794;9.820;2023-02-15T03:43:19;97464.69;;;21.59;38.79
40596;BME280;26304;48.794;9.820;2023-02-15T03:49:07;97470.47;;;21.04;40.07
40596;BME280;26304;48.794;9.820;2023-02-15T03:54:51;97475.78;;;20.51;41.26
40596;BME280;26304;48.794;9.820;2023-02-15T04:00:38;97470.53;;;20.05;41.97
40596;BME280;26304;48.794;9.820;2023-02-15T04:06:40;97455.31;;;19.75;42.57
40596;BME280;26304;48.794;9.820;2023-02-15T04:12:23;97459.31;;;20.35;41.40
40596;BME280;26304;48.794;9.820;2023-02-15T04:18:07;97463.81;;;21.18;39.89
40596;BME280;26304;48.794;9.820;2023-02-15T04:23:49;97467.28;;;21.56;39.29
40596;BME280;26304;48.794;9.820;2023-02-15T04:29:49;97467.56;;;21.85;39.00
40596;BME280;26304;48.794;9.820;2023-02-15T04:35:32;97457.84;;;22.00;38.62
40596;BME280;26304;48.794;9.820;2023-02-15T04:41:15;97468.34;;;21.89;39.03
40596;BME280;26304;48.794;9.820;2023-02-15T04:46:57;97451.09;;;21.61;39.68
40596;BME280;26304;48.794;9.820;2023-02-15T04:52:41;97444.28;;;21.26;40.16
40596;BME280;26304;48.794;9.820;2023-02-15T04:58:23;97440.13;;;20.95;40.79
40596;BME280;26304;48.794;9.820;2023-02-15T05:04:06;97441.47;;;20.81;41.15
40596;BME280;26304;48.794;9.820;2023-02-15T05:09:50;97435.25;;;20.66;41.34
40596;BME280;26304;48.794;9.820;2023-02-15T05:15:32;97433.97;;;20.57;41.48
40596;BME280;26304;48.794;9.820;2023-02-15T05:21:15;97438.47;;;20.29;41.82
40596;BME280;26304;48.794;9.820;2023-02-15T05:26:59;97439.41;;;20.98;40.92
40596;BME280;26304;48.794;9.820;2023-02-15T05:32:59;97436.75;;;22.10;38.90
40596;BME280;26304;48.794;9.820;2023-02-15T05:38:42;97444.06;;;22.24;38.82
40596;BME280;26304;48.794;9.820;2023-02-15T05:44:25;97451.00;;;21.95;39.55
40596;BME280;26304;48.794;9.820;2023-02-15T05:50:09;97441.59;;;22.01;39.89
40596;BME280;26304;48.794;9.820;2023-02-15T05:55:52;97452.06;;;21.87;40.59
40596;BME280;26304;48.794;9.820;2023-02-15T06:01:41;97454.59;;;22.73;39.36
40596;BME280;26304;48.794;9.820;2023-02-15T06:07:24;97457.56;;;22.64;40.25
40596;BME280;26304;48.794;9.820;2023-02-15T06:13:06;97451.19;;;22.17;41.21
40596;BME280;26304;48.794;9.820;2023-02-15T06:18:50;97457.56;;;21.67;42.08
40596;BME280;26304;48.794;9.820;2023-02-15T06:24:33;97455.50;;;21.50;43.00
40596;BME280;26304;48.794;9.820;2023-02-15T06:30:15;97455.75;;;21.41;43.44
40596;BME280;26304;48.794;9.820;2023-02-15T06:35:59;97457.00;;;21.17;43.81
40596;BME280;26304;48.794;9.820;2023-02-15T06:41:42;97453.16;;;21.11;43.81
40596;BME280;26304;48.794;9.820;2023-02-15T06:47:25;97468.13;;;20.99;43.20
40596;BME280;26304;48.794;9.820;2023-02-15T06:53:08;97463.03;;;20.83;44.49
40596;BME280;26304;48.794;9.820;2023-02-15T06:58:51;97460.16;;;20.65;44.96
40596;BME280;26304;48.794;9.820;2023-02-15T07:04:34;97463.06;;;20.60;44.60
40596;BME280;26304;48.794;9.820;2023-02-15T07:10:18;97469.78;;;20.54;44.75
40596;BME280;26304;48.794;9.820;2023-02-15T07:16:00;97477.31;;;20.52;44.90
40596;BME280;26304;48.794;9.820;2023-02-15T07:21:43;97463.63;;;20.46;44.82
40596;BME280;26304;48.794;9.820;2023-02-15T07:27:31;97463.38;;;20.28;45.42
40596;BME280;26304;48.794;9.820;2023-02-15T07:33:14;97457.63;;;20.23;45.32
40596;BME280;26304;48.794;9.820;2023-02-15T07:39:05;97466.09;;;20.09;45.34
40596;BME280;26304;48.794;9.820;2023-02-15T07:44:49;97476.13;;;20.00;45.44
40596;BME280;26304;48.794;9.820;2023-02-15T07:50:32;97460.84;;;19.89;45.46
40596;BME280;26304;48.794;9.820;2023-02-15T07:56:15;97466.38;;;19.81;45.72
40596;BME280;26304;48.794;9.820;2023-02-15T08:01:58;97457.91;;;19.71;45.75
40596;BME280;26304;48.794;9.820;2023-02-15T08:07:41;97455.25;;;19.48;46.12
40596;BME280;26304;48.794;9.820;2023-02-15T08:13:23;97454.06;;;19.69;45.46
40596;BME280;26304;48.794;9.820;2023-02-15T08:19:08;97452.41;;;19.60;46.08
40596;BME280;26304;48.794;9.820;2023-02-15T08:24:51;97453.97;;;19.62;45.98
40596;BME280;26304;48.794;9.820;2023-02-15T08:30:33;97453.16;;;19.38;46.89
40596;BME280;26304;48.794;9.820;2023-02-15T08:36:19;97453.00;;;19.50;46.56
40596;BME280;26304;48.794;9.820;2023-02-15T08:42:01;97455.66;;;19.50;45.81
40596;BME280;26304;48.794;9.820;2023-02-15T08:47:44;97458.97;;;19.47;45.80
40596;BME280;26304;48.794;9.820;2023-02-15T08:53:28;97452.16;;;19.46;46.04
40596;BME280;26304;48.794;9.820;2023-02-15T08:59:13;97452.94;;;19.47;46.07
40596;BME280;26304;48.794;9.820;2023-02-15T09:04:56;97455.16;;;19.45;45.81
40596;BME280;26304;48.794;9.820;2023-02-15T09:10:39;97456.19;;;19.40;45.80
40596;BME280;26304;48.794;9.820;2023-02-15T09:16:23;97454.47;;;19.48;45.79
40596;BME280;26304;48.794;9.820;2023-02-15T09:22:05;97456.34;;;19.47;45.69
40596;BME280;26304;48.794;9.820;2023-02-15T09:27:49;97456.75;;;19.49;45.48
40596;BME280;26304;48.794;9.820;2023-02-15T09:33:33;97449.97;;;19.48;45.51
40596;BME280;26304;48.794;9.820;2023-02-15T09:39:17;97448.13;;;19.52;45.37
40596;BME280;26304;48.794;9.820;2023-02-15T09:45:14;97448.13;;;19.52;45.56
40596;BME280;26304;48.794;9.820;2023-02-15T09:51:12;97449.25;;;19.51;45.34
40596;BME280;26304;48.794;9.820;2023-02-15T09:57:06;97449.97;;;19.48;45.49
40596;BME280;26304;48.794;9.820;2023-02-15T10:03:13;97452.59;;;19.48;45.88
40596;BME280;26304;48.794;9.820;2023-02-15T10:09:09;97439.41;;;19.48;45.77
40596;BME280;26304;48.794;9.820;2023-02-15T10:15:16;97436.34;;;19.46;46.07
40596;BME280;26304;48.794;9.820;2023-02-15T10:21:07;97438.97;;;19.46;45.94
40596;BME280;26304;48.794;9.820;2023-02-15T10:26:58;97431.91;;;19.50;45.62
40596;BME280;26304;48.794;9.820;2023-02-15T10:32:53;97436.88;;;19.55;45.83
40596;BME280;26304;48.794;9.820;2023-02-15T10:38:44;97419.53;;;19.54;45.87
40596;BME280;26304;48.794;9.820;2023-02-15T10:44:39;97413.16;;;19.55;45.63
40596;BME280;26304;48.794;9.820;2023-02-15T10:50:30;97401.50;;;19.56;45.92
40596;BME280;26304;48.794;9.820;2023-02-15T10:56:20;97400.38;;;19.57;45.49
40596;BME280;26304;48.794;9.820;2023-02-15T11:02:11;97396.75;;;19.66;45.61
40596;BME280;26304;48.794;9.820;2023-02-15T11:08:00;97388.00;;;19.62;45.75
40596;BME280;26304;48.794;9.820;2023-02-15T11:13:49;97382.50;;;19.70;44.90
40596;BME280;26304;48.794;9.820;2023-02-15T11:19:35;97385.03;;;19.63;45.23
40596;BME280;26304;48.794;9.820;2023-02-15T11:25:24;97378.22;;;19.62;45.62
40596;BME280;26304;48.794;9.820;2023-02-15T11:31:13;97368.84;;;19.65;45.42
40596;BME280;26304;48.794;9.820;2023-02-15T11:37:01;97368.94;;;19.72;45.41
40596;BME280;26304;48.794;9.820;2023-02-15T11:42:47;97369.72;;;19.72;45.13
40596;BME280;26304;48.794;9.820;2023-02-15T11:48:33;97353.28;;;19.79;45.21
40596;BME280;26304;48.794;9.820;2023-02-15T11:54:15;97351.66;;;19.74;45.58
40596;BME280;26304;48.794;9.820;2023-02-15T12:00:02;97347.84;;;19.72;45.47
40596;BME280;26304;48.794;9.820;2023-02-15T12:05:49;97347.13;;;19.75;45.64
40596;BME280;26304;48.794;9.820;2023-02-15T12:11:36;97344.97;;;19.77;45.26
40596;BME280;26304;48.794;9.820;2023-02-15T12:17:21;97341.19;;;19.78;45.36
40596;BME280;26304;48.794;9.820;2023-02-15T12:23:12;97334.72;;;19.52;45.61
40596;BME280;26304;48.794;9.820;2023-02-15T12:28:58;97328.75;;;19.55;43.81
40596;BME280;26304;48.794;9.820;2023-02-15T12:34:42;97324.22;;;19.56;42.26
40596;BME280;26304;48.794;9.820;2023-02-15T12:40:29;97322.78;;;19.35;42.85
40596;BME280;26304;48.794;9.820;2023-02-15T12:46:23;97318.53;;;19.08;43.07
40596;BME280;26304;48.794;9.820;2023-02-15T12:52:23;97311.38;;;19.28;42.07
40596;BME280;26304;48.794;9.820;2023-02-15T12:58:16;97299.41;;;19.34;40.72
40596;BME280;26304;48.794;9.820;2023-02-15T13:04:01;97297.00;;;19.25;41.84
40596;BME280;26304;48.794;9.820;2023-02-15T13:09:45;97294.63;;;19.16;42.13
40596;BME280;26304;48.794;9.820;2023-02-15T13:15:34;97296.91;;;18.98;43.22
40596;BME280;26304;48.794;9.820;2023-02-15T13:21:19;97298.66;;;18.91;42.38
40596;BME280;26304;48.794;9.820;2023-02-15T13:27:02;97289.09;;;19.25;42.69
40596;BME280;26304;48.794;9.820;2023-02-15T13:32:48;97283.47;;;19.27;41.44
40596;BME280;26304;48.794;9.820;2023-02-15T13:38:46;97274.59;;;19.38;42.19
40596;BME280;26304;48.794;9.820;2023-02-15T13:45:08;97265.38;;;19.25;40.83
40596;BME280;26304;48.794;9.820;2023-02-15T13:51:06;97261.38;;;19.35;41.04
40596;BME280;26304;48.794;9.820;2023-02-15T13:56:59;97260.84;;;19.26;41.20
40596;BME280;26304;48.794;9.820;2023-02-15T14:03:10;97262.44;;;19.07;41.06
40596;BME280;26304;48.794;9.820;2023-02-15T14:09:09;97251.34;;;19.21;40.51
40596;BME280;26304;48.794;9.820;2023-02-15T14:15:08;97259.03;;;19.30;40.19
40596;BME280;26304;48.794;9.820;2023-02-15T14:21:01;97260.69;;;19.15;40.46
40596;BME280;26304;48.794;9.820;2023-02-15T14:26:53;97247.88;;;19.13;39.60
40596;BME280;26304;48.794;9.820;2023-02-15T14:32:42;97248.53;;;19.33;40.24
40596;BME280;26304;48.794;9.820;2023-02-15T14:38:38;97255.88;;;18.97;39.76
40596;BME280;26304;48.794;9.820;2023-02-15T14:44:32;97253.59;;;18.76;39.09
40596;BME280;26304;48.794;9.820;2023-02-15T14:50:38;97259.44;;;18.66;38.57
40596;BME280;26304;48.794;9.820;2023-02-15T14:56:23;97256.53;;;18.51;38.37
40596;BME280;26304;48.794;9.820;2023-02-15T15:02:13;97255.97;;;18.62;38.34
40596;BME280;26304;48.794;9.820;2023-02-15T15:07:58;97261.41;;;18.49;37.36
40596;BME280;26304;48.794;9.820;2023-02-15T15:13:56;97255.63;;;18.44;37.87
40596;BME280;26304;48.794;9.820;2023-02-15T15:20:04;97253.22;;;18.35;37.79
40596;BME280;26304;48.794;9.820;2023-02-15T15:25:56;97246.91;;;18.20;38.43
40596;BME280;26304;48.794;9.820;2023-02-15T15:31:43;97244.19;;;18.17;38.71
40596;BME280;26304;48.794;9.820;2023-02-15T15:37:55;97246.94;;;18.04;39.74
40596;BME280;26304;48.794;9.820;2023-02-15T15:44:05;97254.72;;;17.97;39.34
40596;BME280;26304;48.794;9.820;2023-02-15T15:49:55;97250.03;;;18.06;38.78
40596;BME280;26304;48.794;9.820;2023-02-15T15:55:39;97246.09;;;18.16;39.49
40596;BME280;26304;48.794;9.820;2023-02-15T16:01:27;97253.06;;;18.47;40.79
40596;BME280;26304;48.794;9.820;2023-02-15T16:07:20;97254.09;;;18.62;41.33
40596;BME280;26304;48.794;9.820;2023-02-15T16:13:06;97255.63;;;18.63;39.92
40596;BME280;26304;48.794;9.820;2023-02-15T16:18:49;97254.31;;;18.73;41.42
40596;BME280;26304;48.794;9.820;2023-02-15T16:24:49;97253.16;;;18.51;41.54
40596;BME280;26304;48.794;9.820;2023-02-15T16:30:40;97251.50;;;18.43;41.98
40596;BME280;26304;48.794;9.820;2023-02-15T16:36:24;97250.72;;;18.42;41.73
40596;BME280;26304;48.794;9.820;2023-02-15T16:42:08;97257.31;;;18.32;42.44
40596;BME280;26304;48.794;9.820;2023-02-15T16:47:55;97264.84;;;18.54;42.77
40596;BME280;26304;48.794;9.820;2023-02-15T16:53:39;97274.06;;;18.63;43.36
40596;BME280;26304;48.794;9.820;2023-02-15T16:59:31;97278.84;;;18.58;43.46
40596;BME280;26304;48.794;9.820;2023-02-15T17:05:18;97285.44;;;18.87;42.93
40596;BME280;26304;48.794;9.820;2023-02-15T17:11:14;97292.00;;;18.97;43.45
40596;BME280;26304;48.794;9.820;2023-02-15T17:17:05;97302.53;;;18.77;43.80
40596;BME280;26304;48.794;9.820;2023-02-15T17:22:50;97307.34;;;18.91;44.22
40596;BME280;26304;48.794;9.820;2023-02-15T17:28:33;97310.03;;;18.95;43.93
40596;BME280;26304;48.794;9.820;2023-02-15T17:34:44;97312.38;;;19.00;44.19
40596;BME280;26304;48.794;9.820;2023-02-15T17:40:32;97319.13;;;19.20;44.15
40596;BME280;26304;48.794;9.820;2023-02-15T17:46:15;97321.56;;;19.29;44.25
40596;BME280;26304;48.794;9.820;2023-02-15T17:51:59;97330.63;;;19.32;44.31
40596;BME280;26304;48.794;9.820;2023-02-15T17:57:43;97328.69;;;19.29;44.14
40596;BME280;26304;48.794;9.820;2023-02-15T18:03:33;97318.91;;;19.29;44.79
40596;BME280;26304;48.794;9.820;2023-02-15T18:09:37;97325.34;;;19.32;45.53
40596;BME280;26304;48.794;9.820;2023-02-15T18:15:38;97322.84;;;19.39;45.85
40596;BME280;26304;48.794;9.820;2023-02-15T18:21:22;97317.38;;;19.51;45.29
40596;BME280;26304;48.794;9.820;2023-02-15T18:27:04;97328.88;;;19.63;45.28
40596;BME280;26304;48.794;9.820;2023-02-15T18:32:50;97322.25;;;19.72;45.07
40596;BME280;26304;48.794;9.820;2023-02-15T18:38:33;97320.50;;;19.80;44.92
40596;BME280;26304;48.794;9.820;2023-02-15T18:44:16;97326.28;;;19.89;45.06
40596;BME280;26304;48.794;9.820;2023-02-15T18:50:00;97329.97;;;19.85;45.64
40596;BME280;26304;48.794;9.820;2023-02-15T18:55:42;97331.31;;;19.98;45.46
40596;BME280;26304;48.794;9.820;2023-02-15T19:01:25;97337.00;;;20.00;45.33
40596;BME280;26304;48.794;9.820;2023-02-15T19:07:14;97336.31;;;20.07;45.39
40596;BME280;26304;48.794;9.820;2023-02-15T19:12:58;97340.09;;;20.06;45.35
40596;BME280;26304;48.794;9.820;2023-02-15T19:18:40;97322.69;;;20.01;46.37
40596;BME280;26304;48.794;9.820;2023-02-15T19:24:29;97330.34;;;20.10;45.36
40596;BME280;26304;48.794;9.820;2023-02-15T19:30:14;97328.75;;;20.05;46.28
40596;BME280;26304;48.794;9.820;2023-02-15T19:35:57;97321.63;;;20.06;46.41
40596;BME280;26304;48.794;9.820;2023-02-15T19:41:41;97313.69;;;20.06;46.79
40596;BME280;26304;48.794;9.820;2023-02-15T19:47:26;97308.44;;;20.06;46.78
40596;BME280;26304;48.794;9.820;2023-02-15T19:53:19;97313.03;;;20.12;46.48
40596;BME280;26304;48.794;9.820;2023-02-15T19:59:04;97309.41;;;20.24;46.36
40596;BME280;26304;48.794;9.820;2023-02-15T20:04:46;97313.44;;;20.14;46.92
40596;BME280;26304;48.794;9.820;2023-02-15T20:10:30;97307.81;;;19.89;47.28
40596;BME280;26304;48.794;9.820;2023-02-15T20:16:14;97316.50;;;19.90;47.11
40596;BME280;26304;48.794;9.820;2023-02-15T20:21:57;97308.63;;;19.70;47.67
40596;BME280;26304;48.794;9.820;2023-02-15T20:27:40;97304.72;;;19.60;47.68
40596;BME280;26304;48.794;9.820;2023-02-15T20:33:25;97312.31;;;19.89;47.22
40596;BME280;26304;48.794;9.820;2023-02-15T20:39:12;97305.63;;;19.95;46.69
40596;BME280;26304;48.794;9.820;2023-02-15T20:44:55;97300.63;;;19.40;45.76
40596;BME280;26304;48.794;9.820;2023-02-15T20:50:39;97292.72;;;18.35;42.89
40596;BME280;26304;48.794;9.820;2023-02-15T20:56:23;97286.19;;;18.09;40.47
40596;BME280;26304;48.794;9.820;2023-02-15T21:02:14;97286.88;;;17.74;40.16
40596;BME280;26304;48.794;9.820;2023-02-15T21:07:59;97277.06;;;17.71;39.75
40596;BME280;26304;48.794;9.820;2023-02-15T21:13:41;97272.34;;;17.96;39.79
40596;BME280;26304;48.794;9.820;2023-02-15T21:19:24;97273.78;;;18.10;40.56
40596;BME280;26304;48.794;9.820;2023-02-15T21:25:13;97265.25;;;18.17;41.08
40596;BME280;26304;48.794;9.820;2023-02-15T21:30:57;97271.28;;;18.17;41.33
40596;BME280;26304;48.794;9.820;2023-02-15T21:36:41;97264.84;;;18.14;41.73
40596;BME280;26304;48.794;9.820;2023-02-15T21:42:25;97261.38;;;18.10;42.56
40596;BME280;26304;48.794;9.820;2023-02-15T21:48:25;97258.31;;;18.08;42.37
40596;BME280;26304;48.794;9.820;2023-02-15T21:54:10;97256.72;;;18.04;42.87
40596;BME280;26304;48.794;9.820;2023-02-15T21:59:54;97247.63;;;18.01;43.29
40596;BME280;26304;48.794;9.820;2023-02-15T22:05:37;97245.69;;;17.98;43.28
40596;BME280;26304;48.794;9.820;2023-02-15T22:11:20;97241.16;;;17.95;43.35
40596;BME280;26304;48.794;9.820;2023-02-15T22:17:12;97252.56;;;17.87;43.78
40596;BME280;26304;48.794;9.820;2023-02-15T22:22:55;97245.81;;;17.86;43.98
40596;BME280;26304;48.794;9.820;2023-02-15T22:28:39;97244.53;;;17.79;44.36
40596;BME280;26304;48.794;9.820;2023-02-15T22:34:26;97244.13;;;17.77;44.33
40596;BME280;26304;48.794;9.820;2023-02-15T22:40:13;97250.75;;;17.71;44.61
40596;BME280;26304;48.794;9.820;2023-02-15T22:45:59;97244.66;;;17.67;44.42
40596;BME280;26304;48.794;9.820;2023-02-15T22:51:46;97241.94;;;17.64;44.62
40596;BME280;26304;48.794;9.820;2023-02-15T22:57:30;97239.25;;;17.60;44.76
40596;BME280;26304;48.794;9.820;2023-02-15T23:03:16;97239.59;;;17.58;44.97
40596;BME280;26304;48.794;9.820;2023-02-15T23:09:00;97242.09;;;17.55;44.79
40596;BME280;26304;48.794;9.820;2023-02-15T23:14:44;97242.78;;;17.52;44.69
40596;BME280;26304;48.794;9.820;2023-02-15T23:20:26;97240.88;;;17.49;44.66
40596;BME280;26304;48.794;9.820;2023-02-15T23:26:16;97239.66;;;17.46;44.67
40596;BME280;26304;48.794;9.820;2023-02-15T23:31:59;97239.25;;;17.44;44.84
40596;BME280;26304;48.794;9.820;2023-02-15T23:37:41;97249.00;;;17.43;44.94
40596;BME280;26304;48.794;9.820;2023-02-15T23:43:25;97251.63;;;17.43;45.20
40596;BME280;26304;48.794;9.820;2023-02-15T23:49:10;97248.84;;;17.36;45.15
40596;BME280;26304;48.794;9.820;2023-02-15T23:54:55;97249.94;;;17.35;44.99
